createdAt,value
2018-09-19T00:01:04.110Z,14.10
2018-09-19T00:03:32.383Z,14.10
2018-09-19T00:06:00.807Z,14.00
2018-09-19T00:08:28.799Z,14.00
2018-09-19T00:10:57.588Z,14.00
2018-09-19T00:13:25.728Z,14.00
2018-09-19T00:15:54.110Z,14.00
2018-09-19T00:18:21.982Z,14.00
2018-09-19T00:20:50.311Z,14.00
2018-09-19T00:23:19.309Z,14.00
2018-09-19T00:25:47.692Z,14.00
2018-09-19T00:28:16.397Z,13.90
2018-09-19T00:30:44.932Z,14.00
2018-09-19T00:33:13.713Z,13.90
2018-09-19T00:35:41.832Z,13.90
2018-09-19T00:38:09.911Z,13.90
2018-09-19T00:40:37.951Z,13.90
2018-09-19T00:43:06.384Z,13.90
2018-09-19T00:45:34.657Z,13.90
2018-09-19T00:48:02.745Z,13.90
2018-09-19T00:50:31.825Z,13.80
2018-09-19T00:53:00.829Z,13.80
2018-09-19T00:55:29.208Z,13.80
2018-09-19T00:57:58.064Z,13.80
2018-09-19T01:00:26.153Z,13.70
2018-09-19T01:02:54.072Z,13.70
2018-09-19T01:05:22.641Z,13.70
2018-09-19T01:07:51.449Z,13.60
2018-09-19T01:10:19.793Z,13.50
2018-09-19T01:12:47.889Z,13.50
2018-09-19T01:15:16.243Z,13.50
2018-09-19T01:17:44.376Z,13.50
2018-09-19T01:20:12.738Z,13.50
2018-09-19T01:22:40.707Z,13.50
2018-09-19T01:25:08.687Z,13.50
2018-09-19T01:27:36.817Z,13.50
2018-09-19T01:30:05.063Z,13.50
2018-09-19T01:32:33.320Z,13.40
2018-09-19T01:35:01.394Z,13.40
2018-09-19T01:37:29.413Z,13.40
2018-09-19T01:39:57.390Z,13.40
2018-09-19T01:42:25.394Z,13.40
2018-09-19T01:44:53.580Z,13.40
2018-09-19T01:47:21.693Z,13.40
2018-09-19T01:49:49.842Z,13.40
2018-09-19T01:52:18.359Z,13.50
2018-09-19T01:54:46.601Z,13.50
2018-09-19T01:57:14.639Z,13.50
2018-09-19T01:59:43.456Z,13.40
2018-09-19T02:02:11.516Z,13.40
2018-09-19T02:04:39.621Z,13.40
2018-09-19T02:07:07.815Z,13.40
2018-09-19T02:09:36.023Z,13.40
2018-09-19T02:12:03.926Z,13.40
2018-09-19T02:14:32.305Z,13.30
2018-09-19T02:17:00.317Z,13.30
2018-09-19T02:19:28.595Z,13.30
2018-09-19T02:21:56.480Z,13.30
2018-09-19T02:24:24.515Z,13.30
2018-09-19T02:26:52.492Z,13.30
2018-09-19T02:29:20.262Z,13.30
2018-09-19T02:31:48.307Z,13.40
2018-09-19T02:34:16.653Z,13.40
2018-09-19T02:36:45.483Z,13.40
2018-09-19T02:39:13.478Z,13.40
2018-09-19T02:41:41.629Z,13.40
2018-09-19T02:44:09.507Z,13.40
2018-09-19T02:46:37.613Z,13.40
2018-09-19T02:49:05.975Z,13.30
2018-09-19T02:51:34.241Z,13.30
2018-09-19T02:54:02.315Z,13.30
2018-09-19T02:56:30.350Z,13.20
2018-09-19T02:58:58.955Z,13.20
2018-09-19T03:01:26.900Z,13.20
2018-09-19T03:03:54.953Z,13.10
2018-09-19T03:06:23.119Z,13.10
2018-09-19T03:08:51.292Z,13.10
2018-09-19T03:11:19.318Z,13.10
2018-09-19T03:13:47.294Z,13.00
2018-09-19T03:16:15.294Z,13.00
2018-09-19T03:18:43.529Z,13.00
2018-09-19T03:21:11.677Z,13.00
2018-09-19T03:23:39.720Z,13.00
2018-09-19T03:26:08.273Z,13.00
2018-09-19T03:28:36.685Z,12.90
2018-09-19T03:31:05.192Z,12.90
2018-09-19T03:33:33.756Z,12.90
2018-09-19T03:36:03.200Z,12.80
2018-09-19T03:38:31.256Z,12.80
2018-09-19T03:40:59.191Z,12.70
2018-09-19T03:43:27.189Z,12.70
2018-09-19T03:45:55.986Z,12.70
2018-09-19T03:48:24.155Z,12.70
2018-09-19T03:50:52.133Z,12.70
2018-09-19T03:53:20.657Z,12.70
2018-09-19T03:55:48.821Z,12.70
2018-09-19T03:58:17.151Z,12.70
2018-09-19T04:00:45.186Z,12.60
2018-09-19T04:03:12.915Z,12.60
2018-09-19T04:05:40.740Z,12.50
2018-09-19T04:08:08.879Z,12.50
2018-09-19T04:10:37.119Z,12.50
2018-09-19T04:13:05.144Z,12.40
2018-09-19T04:15:33.483Z,12.40
2018-09-19T04:18:02.059Z,12.40
2018-09-19T04:20:30.127Z,12.40
2018-09-19T04:22:58.542Z,12.40
2018-09-19T04:25:26.813Z,12.30
2018-09-19T04:27:55.485Z,12.30
2018-09-19T04:30:23.538Z,12.30
2018-09-19T04:32:51.603Z,12.30
2018-09-19T04:35:20.035Z,12.30
2018-09-19T04:37:48.188Z,12.30
2018-09-19T04:40:16.528Z,12.30
2018-09-19T04:42:44.522Z,12.30
2018-09-19T04:45:12.652Z,12.30
2018-09-19T04:47:40.618Z,12.30
2018-09-19T04:50:08.596Z,12.20
2018-09-19T04:52:37.480Z,12.20
2018-09-19T04:55:06.458Z,12.30
2018-09-19T04:57:34.660Z,12.30
2018-09-19T05:00:02.798Z,12.30
2018-09-19T05:02:30.679Z,12.30
2018-09-19T05:04:58.431Z,12.30
2018-09-19T05:07:26.646Z,12.30
2018-09-19T05:09:54.782Z,12.30
2018-09-19T05:12:22.791Z,12.30
2018-09-19T05:14:51.409Z,12.30
2018-09-19T05:17:19.580Z,12.30
2018-09-19T05:19:47.956Z,12.30
2018-09-19T05:22:15.876Z,12.30
2018-09-19T05:24:43.703Z,12.40
2018-09-19T05:27:13.004Z,12.40
2018-09-19T05:29:41.100Z,12.40
2018-09-19T05:32:09.186Z,12.40
2018-09-19T05:34:37.285Z,12.50
2018-09-19T05:37:05.276Z,12.50
2018-09-19T05:39:33.645Z,12.50
2018-09-19T05:42:03.154Z,12.60
2018-09-19T05:44:31.231Z,12.60
2018-09-19T05:46:59.224Z,12.70
2018-09-19T05:49:28.009Z,12.70
2018-09-19T05:51:56.005Z,12.70
2018-09-19T05:54:24.150Z,12.80
2018-09-19T05:56:52.639Z,12.80
2018-09-19T05:59:21.993Z,12.90
2018-09-19T06:06:45.952Z,13.30
2018-09-19T06:09:14.417Z,13.30
2018-09-19T06:11:42.561Z,13.30
2018-09-19T06:14:10.561Z,13.40
2018-09-19T06:16:38.716Z,13.50
2018-09-19T06:19:06.950Z,13.60
2018-09-19T06:21:35.059Z,13.80
2018-09-19T06:29:33.793Z,14.20
2018-09-19T06:32:01.971Z,14.30
2018-09-19T06:34:30.223Z,14.40
2018-09-19T06:36:58.222Z,14.60
2018-09-19T06:39:26.406Z,14.70
2018-09-19T06:41:54.542Z,14.80
2018-09-19T06:44:22.873Z,14.90
2018-09-19T06:46:51.869Z,15.00
2018-09-19T06:49:20.514Z,15.10
2018-09-19T06:51:48.818Z,15.30
2018-09-19T06:54:16.887Z,15.50
2018-09-19T06:56:45.115Z,15.70
2018-09-19T06:59:13.350Z,15.90
2018-09-19T07:01:41.944Z,16.10
2018-09-19T07:04:10.115Z,16.30
2018-09-19T07:06:38.265Z,16.40
2018-09-19T07:09:06.968Z,16.50
2018-09-19T07:11:35.042Z,16.60
2018-09-19T07:14:03.319Z,16.70
2018-09-19T07:16:31.112Z,16.90
2018-09-19T07:18:58.942Z,17.10
2018-09-19T07:21:27.071Z,17.40
2018-09-19T07:23:55.488Z,17.60
2018-09-19T07:26:23.198Z,17.70
2018-09-19T07:28:51.149Z,17.70
2018-09-19T07:31:19.285Z,17.80
2018-09-19T07:33:47.293Z,17.90
2018-09-19T07:36:15.219Z,18.00
2018-09-19T07:38:43.108Z,18.20
2018-09-19T07:41:11.100Z,18.30
2018-09-19T07:43:39.137Z,18.50
2018-09-19T07:46:06.915Z,18.70
2018-09-19T07:48:34.998Z,18.80
2018-09-19T07:51:03.004Z,18.90
2018-09-19T07:53:32.853Z,19.00
2018-09-19T07:56:01.250Z,19.10
2018-09-19T07:58:29.661Z,19.20
2018-09-19T08:00:58.198Z,19.30
2018-09-19T08:03:26.198Z,19.40
2018-09-19T08:05:54.246Z,19.50
2018-09-19T08:08:22.168Z,19.70
2018-09-19T08:10:50.764Z,19.80
2018-09-19T08:13:18.638Z,19.90
2018-09-19T08:15:46.783Z,20.10
2018-09-19T08:18:15.575Z,20.20
2018-09-19T08:20:43.470Z,20.40
2018-09-19T08:23:12.397Z,20.70
2018-09-19T08:25:42.032Z,21.00
2018-09-19T08:28:11.047Z,21.10
2018-09-19T08:30:40.521Z,21.10
2018-09-19T08:33:10.340Z,21.20
2018-09-19T08:35:39.583Z,21.40
2018-09-19T08:38:10.159Z,21.70
2018-09-19T08:40:40.261Z,21.90
2018-09-19T08:43:09.738Z,22.20
2018-09-19T08:45:38.907Z,22.40
2018-09-19T08:48:08.622Z,22.70
2018-09-19T08:50:38.020Z,22.90
2018-09-19T08:53:07.101Z,23.00
2018-09-19T08:55:36.334Z,23.20
2018-09-19T08:58:05.575Z,23.40
2018-09-19T09:00:35.303Z,23.60
2018-09-19T09:03:04.973Z,23.70
2018-09-19T09:05:34.299Z,23.80
2018-09-19T09:08:04.015Z,23.80
2018-09-19T09:10:33.756Z,24.00
2018-09-19T09:13:03.999Z,24.10
2018-09-19T09:15:33.313Z,24.20
2018-09-19T09:18:02.006Z,24.40
2018-09-19T09:20:30.792Z,24.40
2018-09-19T09:22:59.464Z,24.50
2018-09-19T09:25:28.423Z,24.80
2018-09-19T09:27:57.064Z,25.00
2018-09-19T09:30:25.849Z,25.20
2018-09-19T09:32:54.724Z,25.30
2018-09-19T09:35:23.456Z,25.50
2018-09-19T09:37:52.125Z,25.70
2018-09-19T09:40:21.028Z,25.90
2018-09-19T09:42:50.070Z,26.20
2018-09-19T09:45:18.921Z,26.40
2018-09-19T09:47:48.031Z,26.40
2018-09-19T09:50:16.676Z,26.30
2018-09-19T09:52:45.590Z,26.30
2018-09-19T09:55:14.744Z,26.30
2018-09-19T09:57:43.591Z,26.30
2018-09-19T10:00:12.434Z,26.40
2018-09-19T10:02:40.948Z,26.60
2018-09-19T10:05:09.912Z,26.70
2018-09-19T10:07:38.812Z,26.90
2018-09-19T10:10:07.819Z,27.10
2018-09-19T10:12:36.945Z,27.30
2018-09-19T10:15:06.463Z,27.40
2018-09-19T10:17:36.070Z,27.40
2018-09-19T10:20:05.683Z,27.40
2018-09-19T10:22:35.141Z,27.50
2018-09-19T10:25:04.736Z,27.50
2018-09-19T10:27:34.172Z,27.60
2018-09-19T10:30:03.938Z,27.80
2018-09-19T10:32:33.285Z,27.90
2018-09-19T10:35:02.463Z,27.90
2018-09-19T10:37:33.416Z,28.10
2018-09-19T10:40:03.061Z,28.20
2018-09-19T10:42:32.138Z,28.30
2018-09-19T10:45:01.422Z,28.40
2018-09-19T10:47:30.720Z,28.50
2018-09-19T10:50:00.125Z,28.60
2018-09-19T10:52:29.289Z,28.70
2018-09-19T10:54:58.287Z,28.80
2018-09-19T10:57:27.485Z,28.90
2018-09-19T10:59:56.537Z,28.90
2018-09-19T11:02:26.289Z,28.90
2018-09-19T11:04:55.230Z,29.00
2018-09-19T11:07:25.258Z,29.10
2018-09-19T11:09:54.911Z,29.30
2018-09-19T11:12:24.117Z,29.50
2018-09-19T11:14:53.522Z,29.80
2018-09-19T11:17:22.264Z,29.90
2018-09-19T11:19:52.046Z,30.10
2018-09-19T11:22:20.822Z,30.00
2018-09-19T11:24:49.672Z,29.90
2018-09-19T11:27:18.430Z,29.70
2018-09-19T11:29:47.653Z,29.40
2018-09-19T11:32:16.565Z,29.20
2018-09-19T11:34:45.261Z,29.00
2018-09-19T11:37:14.042Z,28.80
2018-09-19T11:39:42.921Z,28.70
2018-09-19T11:42:11.652Z,28.80
2018-09-19T11:44:40.488Z,28.90
2018-09-19T11:47:09.215Z,29.10
2018-09-19T11:49:38.113Z,29.40
2018-09-19T11:52:06.885Z,29.60
2018-09-19T11:54:35.522Z,29.90
2018-09-19T11:57:04.387Z,30.20
2018-09-19T11:59:33.253Z,30.30
2018-09-19T12:02:02.515Z,30.30
2018-09-19T12:04:31.285Z,30.40
2018-09-19T12:07:00.150Z,30.50
2018-09-19T12:09:28.835Z,30.60
2018-09-19T12:11:57.564Z,30.60
2018-09-19T12:14:26.327Z,30.60
2018-09-19T12:16:55.182Z,30.60
2018-09-19T12:19:24.318Z,30.60
2018-09-19T12:21:53.192Z,30.50
2018-09-19T12:24:22.109Z,30.40
2018-09-19T12:26:50.804Z,30.30
2018-09-19T12:29:19.556Z,30.20
2018-09-19T12:31:48.418Z,30.10
2018-09-19T12:34:17.481Z,30.10
2018-09-19T12:36:46.502Z,30.00
2018-09-19T12:39:15.693Z,30.00
2018-09-19T12:41:44.516Z,29.90
2018-09-19T12:44:13.315Z,29.90
2018-09-19T12:46:42.129Z,29.70
2018-09-19T12:49:11.403Z,29.50
2018-09-19T12:51:40.716Z,29.20
2018-09-19T12:54:09.554Z,28.90
2018-09-19T12:56:38.870Z,28.70
2018-09-19T12:59:07.638Z,28.50
2018-09-19T13:01:36.352Z,28.30
2018-09-19T13:04:05.594Z,28.20
2018-09-19T13:06:34.401Z,28.00
2018-09-19T13:09:04.062Z,27.90
2018-09-19T13:11:33.070Z,27.70
2018-09-19T13:14:02.275Z,27.60
2018-09-19T13:16:31.743Z,27.50
2018-09-19T13:19:00.503Z,27.50
2018-09-19T13:21:29.266Z,27.50
2018-09-19T13:23:58.106Z,27.40
2018-09-19T13:26:27.446Z,27.30
2018-09-19T13:28:56.622Z,27.30
2018-09-19T13:31:25.748Z,27.30
2018-09-19T13:33:55.112Z,27.30
2018-09-19T13:42:09.333Z,27.10
2018-09-19T13:44:38.267Z,27.20
2018-09-19T13:47:07.350Z,27.20
2018-09-19T13:49:47.704Z,27.30
2018-09-19T13:52:16.648Z,27.50
2018-09-19T13:54:46.058Z,27.90
2018-09-19T13:57:15.008Z,28.80
2018-09-19T13:59:48.124Z,29.70
2018-09-19T14:02:17.030Z,30.50
2018-09-19T14:04:48.010Z,31.10
2018-09-19T14:07:18.456Z,31.50
2018-09-19T14:09:47.935Z,31.50
2018-09-19T14:12:16.768Z,31.10
2018-09-19T14:14:46.161Z,30.50
2018-09-19T14:17:16.184Z,30.00
2018-09-19T14:19:45.179Z,29.40
2018-09-19T14:22:14.267Z,28.90
2018-09-19T14:24:42.986Z,28.50
2018-09-19T14:27:11.790Z,28.10
2018-09-19T14:29:40.720Z,27.80
2018-09-19T14:32:09.750Z,27.60
2018-09-19T14:34:38.689Z,27.30
2018-09-19T14:37:07.402Z,27.10
2018-09-19T14:39:36.349Z,26.90
2018-09-19T14:42:05.191Z,26.80
2018-09-19T14:44:34.588Z,26.70
2018-09-19T14:47:03.494Z,26.50
2018-09-19T14:49:32.460Z,26.40
2018-09-19T14:52:02.066Z,26.30
2018-09-19T14:54:32.100Z,26.20
2018-09-19T14:57:04.221Z,26.20
2018-09-19T14:59:33.045Z,26.20
2018-09-19T15:02:02.159Z,26.10
2018-09-19T15:04:31.145Z,26.00
2018-09-19T15:07:05.130Z,25.90
2018-09-19T15:09:34.117Z,25.90
2018-09-19T15:12:03.188Z,25.80
2018-09-19T15:14:31.858Z,25.80
2018-09-19T15:17:00.846Z,25.70
2018-09-19T15:19:30.491Z,25.60
2018-09-19T15:37:59.152Z,25.30
2018-09-19T15:40:27.790Z,25.20
2018-09-19T15:42:56.789Z,25.20
2018-09-19T15:45:29.750Z,25.10
2018-09-19T15:48:01.533Z,25.10
2018-09-19T15:50:30.390Z,25.00
2018-09-19T15:53:03.156Z,24.90
2018-09-19T15:55:36.158Z,24.80
2018-09-19T15:58:04.956Z,24.80
2018-09-19T16:00:34.403Z,24.70
2018-09-19T16:03:03.804Z,24.60
2018-09-19T16:05:32.754Z,24.60
2018-09-19T16:08:01.680Z,24.50
2018-09-19T16:10:30.578Z,24.40
2018-09-19T16:12:59.252Z,24.30
2018-09-19T16:15:32.101Z,24.20
2018-09-19T16:18:09.739Z,24.10
2018-09-19T16:20:38.993Z,23.90
2018-09-19T16:23:25.249Z,23.80
2018-09-19T16:29:41.299Z,23.50
2018-09-19T16:32:10.080Z,23.40
2018-09-19T16:34:39.215Z,23.30
2018-09-19T16:37:07.878Z,23.20
2018-09-19T16:39:36.752Z,23.10
2018-09-19T16:42:05.552Z,23.00
2018-09-19T16:44:34.614Z,22.90
2018-09-19T16:47:03.793Z,22.80
2018-09-19T16:49:32.935Z,22.70
2018-09-19T16:52:01.860Z,22.50
2018-09-19T16:54:31.143Z,22.40
2018-09-19T16:56:59.989Z,22.20
2018-09-19T16:59:29.878Z,22.00
2018-09-19T17:01:58.938Z,21.90
2018-09-19T17:04:28.349Z,21.70
2018-09-19T17:06:58.419Z,21.60
2018-09-19T17:09:27.877Z,21.40
2018-09-19T17:11:56.765Z,21.30
2018-09-19T17:14:26.124Z,21.10
2018-09-19T17:16:54.782Z,21.00
2018-09-19T17:19:23.545Z,20.90
2018-09-19T17:21:52.465Z,20.80
2018-09-19T17:24:21.324Z,20.70
2018-09-19T17:26:50.339Z,20.60
2018-09-19T17:29:19.312Z,20.50
2018-09-19T17:31:48.133Z,20.30
2018-09-19T17:34:17.038Z,20.20
2018-09-19T17:36:46.138Z,20.10
2018-09-19T17:39:14.893Z,20.10
2018-09-19T17:41:44.315Z,20.00
2018-09-19T17:44:13.471Z,20.00
2018-09-19T17:46:42.178Z,19.90
2018-09-19T17:49:10.978Z,19.80
2018-09-19T17:51:39.294Z,19.70
2018-09-19T17:54:08.419Z,19.60
2018-09-19T17:56:37.844Z,19.50
2018-09-19T17:59:07.057Z,19.50
2018-09-19T18:01:36.384Z,19.40
2018-09-19T18:04:05.537Z,19.40
2018-09-19T18:06:34.711Z,19.40
2018-09-19T18:09:03.483Z,19.40
2018-09-19T18:11:32.287Z,19.30
2018-09-19T18:14:00.509Z,19.30
2018-09-19T18:16:28.590Z,19.20
2018-09-19T18:18:56.909Z,19.10
2018-09-19T18:21:26.085Z,19.10
2018-09-19T18:23:54.369Z,19.00
2018-09-19T18:26:22.840Z,18.90
2018-09-19T18:28:51.091Z,18.90
2018-09-19T18:31:19.442Z,18.90
2018-09-19T18:33:47.874Z,18.90
2018-09-19T18:36:16.828Z,19.00
2018-09-19T18:38:45.459Z,19.00
2018-09-19T18:41:13.532Z,19.00
2018-09-19T18:43:42.846Z,19.00
2018-09-19T18:46:11.909Z,19.10
2018-09-19T18:48:40.390Z,19.10
2018-09-19T18:51:09.823Z,19.10
2018-09-19T18:53:38.830Z,19.10
2018-09-19T18:56:06.895Z,19.20
2018-09-19T18:58:35.238Z,19.10
2018-09-19T19:01:03.431Z,19.10
2018-09-19T19:03:31.479Z,19.10
2018-09-19T19:06:00.003Z,19.00
2018-09-19T19:08:28.245Z,18.90
2018-09-19T19:10:58.446Z,18.90
2018-09-19T19:13:27.111Z,18.80
2018-09-19T19:15:55.140Z,18.80
2018-09-19T19:18:23.342Z,18.70
2018-09-19T19:20:52.429Z,18.70
2018-09-19T19:23:20.501Z,18.60
2018-09-19T19:25:48.612Z,18.60
2018-09-19T19:28:16.977Z,18.50
2018-09-19T19:30:47.247Z,18.40
2018-09-19T19:33:15.936Z,18.30
2018-09-19T19:35:43.921Z,18.30
2018-09-19T19:38:12.585Z,18.20
2018-09-19T19:40:41.050Z,18.10
2018-09-19T19:43:09.108Z,18.10
2018-09-19T19:45:37.493Z,18.00
2018-09-19T19:48:07.143Z,18.00
2018-09-19T19:50:37.924Z,17.90
2018-09-19T19:53:09.719Z,17.80
2018-09-19T19:55:39.191Z,17.70
2018-09-19T19:58:08.300Z,17.70
2018-09-19T20:00:36.849Z,17.60
2018-09-19T20:03:17.920Z,17.60
2018-09-19T20:05:47.005Z,17.50
2018-09-19T20:08:15.905Z,17.60
2018-09-19T20:10:45.046Z,17.50
2018-09-19T20:13:13.817Z,17.50
2018-09-19T20:15:41.953Z,17.50
2018-09-19T20:18:10.055Z,17.50
2018-09-19T20:20:39.143Z,17.50
2018-09-19T20:23:08.648Z,17.50
2018-09-19T20:25:37.044Z,17.40
2018-09-19T20:28:05.879Z,17.40
2018-09-19T20:30:34.664Z,17.30
2018-09-19T20:33:03.889Z,17.10
2018-09-19T20:35:33.068Z,17.10
2018-09-19T20:38:02.220Z,16.90
2018-09-19T20:40:30.973Z,16.80
2018-09-19T20:42:58.877Z,16.70
2018-09-19T20:45:27.225Z,16.60
2018-09-19T20:47:55.740Z,16.50
2018-09-19T20:50:23.738Z,16.50
2018-09-19T20:52:51.848Z,16.40
2018-09-19T20:55:20.996Z,16.40
2018-09-19T20:57:49.040Z,16.30
2018-09-19T21:00:17.550Z,16.30
2018-09-19T21:02:45.504Z,16.30
2018-09-19T21:05:13.638Z,16.30
2018-09-19T21:07:41.539Z,16.40
2018-09-19T21:10:09.391Z,16.50
2018-09-19T21:12:37.361Z,16.60
2018-09-19T21:15:05.530Z,16.70
2018-09-19T21:17:33.586Z,16.80
2018-09-19T21:20:01.509Z,16.80
2018-09-19T21:22:29.755Z,16.90
2018-09-19T21:24:57.836Z,17.00
2018-09-19T21:27:26.496Z,17.00
2018-09-19T21:29:54.768Z,17.00
2018-09-19T21:32:23.016Z,17.00
2018-09-19T21:34:51.195Z,17.00
2018-09-19T21:37:20.105Z,17.00
2018-09-19T21:39:48.333Z,17.00
2018-09-19T21:42:16.860Z,16.90
2018-09-19T21:44:44.941Z,16.90
2018-09-19T21:47:13.033Z,16.80
2018-09-19T21:49:41.778Z,16.80
2018-09-19T21:52:10.073Z,16.80
2018-09-19T21:54:38.272Z,16.80
2018-09-19T21:57:06.163Z,16.80
2018-09-19T21:59:34.098Z,16.80
2018-09-19T22:02:02.057Z,16.90
2018-09-19T22:04:30.028Z,16.90
2018-09-19T22:06:57.895Z,16.90
2018-09-19T22:09:26.109Z,16.90
2018-09-19T22:11:54.265Z,16.80
2018-09-19T22:14:22.217Z,16.80
2018-09-19T22:16:50.805Z,16.70
2018-09-19T22:19:19.274Z,16.60
2018-09-19T22:21:48.009Z,16.50
2018-09-19T22:24:16.313Z,16.40
2018-09-19T22:26:44.543Z,16.40
2018-09-19T22:29:12.625Z,16.30
2018-09-19T22:31:40.765Z,16.30
2018-09-19T22:34:08.958Z,16.30
2018-09-19T22:36:37.521Z,16.30
2018-09-19T22:39:06.929Z,16.30
2018-09-19T22:41:34.786Z,16.30
2018-09-19T22:44:03.653Z,16.30
2018-09-19T22:46:31.791Z,16.30
2018-09-19T22:48:59.775Z,16.30
2018-09-19T22:51:27.857Z,16.20
2018-09-19T22:53:55.693Z,16.20
2018-09-19T22:56:23.885Z,16.10
2018-09-19T22:58:52.644Z,16.00
2018-09-19T23:01:20.750Z,16.00
2018-09-19T23:03:48.768Z,15.90
2018-09-19T23:06:16.587Z,15.90
2018-09-19T23:08:44.639Z,15.80
2018-09-19T23:11:12.987Z,15.70
2018-09-19T23:13:41.033Z,15.60
2018-09-19T23:16:09.517Z,15.60
2018-09-19T23:18:37.643Z,15.40
2018-09-19T23:21:06.540Z,15.40
2018-09-19T23:23:35.202Z,15.30
2018-09-19T23:26:03.218Z,15.30
2018-09-19T23:28:31.267Z,15.30
2018-09-19T23:30:59.427Z,15.30
2018-09-19T23:33:28.292Z,15.30
2018-09-19T23:35:56.356Z,15.30
2018-09-19T23:38:24.455Z,15.30
2018-09-19T23:40:52.679Z,15.30
2018-09-19T23:43:20.711Z,15.40
2018-09-19T23:45:48.603Z,15.40
2018-09-19T23:48:17.532Z,15.50
2018-09-19T23:50:45.590Z,15.50
2018-09-19T23:53:13.794Z,15.60
2018-09-19T23:55:41.993Z,15.80
2018-09-19T23:58:10.284Z,15.90
